עמוד ראשי
METAR-TAF:

METAR-TAF

שדות תעופה :

Haines, אלסקה, ארצות הברית

קו רוחב: 59-15N, קו אורך: 135-31W, גובה: 5מטר

תצפית מזג אוויר נוכחית

הדו"ח נערך לפני 26דקות, בשעה 08:54 UTC
רוח 4קשר מכיוון מזרח
טמפרטורת 16 צלסיוס
לחות 77%
לחץ 1012 hPa
ראות: 16.1קילומטר
עננים פזורים בגובה 2100רגל
מעונן בגובה 3200רגל

METAR: PAHN 240854Z AUTO 09004KT 10SM SCT021 OVC032 16/12 A2989 RMK AO2 SLP123 T01610117 401940122 51012 TSNO

זמן: 01:20 (09:20 UTC)

תחזית

הדו"ח נערך לפני 3 שעות ו 38דקות, בשעה 05:42 UTC
תחזית בתוקף מ 24 ב 06 UTC עד 25 ב 06 UTC
רוח 5קשר מכיוון מזרח
ראות: 10קילומטר
מעונן בגובה 5000רגל
מ 24 ב 1000UTC
רוח 5קשר מכיוון דרום-מזרח
ראות: 10קילומטר
מעונן בגובה 2000רגל
מ 24 ב 1800UTC
רוח 5קשר מכיוון מזרח/דרום-מזרח
ראות: 10קילומטר
מעונן בגובה 5000רגל

TAF: PAHN 240542Z 2406/2506 08005KT P6SM OVC050 FM241000 13005KT P6SM OVC020 FM241800 12005KT P6SM OVC050 AMD LTD TO CLD VIS AND WIND

תצפיות ותחזיות מזג אוויר לגבי יותר מ- 4,000 שדות תעופה ברחבי העולם. דוחות METAR ו- TAF.

התחנות הזמינות מסומנות בנקודות צהובות ואדומות על גבי המפה.

העבר את העכבר לנקודה הצבעונית על מנת לראות את שם התחנה.

לאחר מכן, לחץ כדי לראות את תוכן ואת תחזיות מזג האוויר.

כדי לשנות את המפה: לחץ על הכפתורים הירוקים עם הפלוס השחור כדי להתקרב; על הכפתור הירוק עם המקף כדי להתרחק; או בחיצים הירוקים למפות סמוכות.


METAR-TAF: